createdAt,value
2022-08-23T00:02:23.574Z,1.63
2022-08-23T00:05:08.422Z,1.65
2022-08-23T00:07:42.601Z,1.90
2022-08-23T00:10:11.634Z,1.80
2022-08-23T00:12:39.310Z,2.35
2022-08-23T00:15:08.853Z,2.00
2022-08-23T00:17:36.859Z,2.10
2022-08-23T00:20:10.456Z,1.90
2022-08-23T00:22:38.178Z,1.98
2022-08-23T00:25:08.551Z,1.85
2022-08-23T00:27:35.866Z,2.53
2022-08-23T00:30:05.576Z,2.10
2022-08-23T00:32:35.257Z,2.30
2022-08-23T00:35:03.171Z,2.50
2022-08-23T00:37:32.429Z,2.53
2022-08-23T00:40:00.106Z,2.97
2022-08-23T00:43:06.219Z,3.60
2022-08-23T00:46:17.288Z,3.20
2022-08-23T00:48:45.914Z,2.75
2022-08-23T00:51:22.361Z,2.75
2022-08-23T00:53:58.914Z,2.88
2022-08-23T00:56:27.863Z,3.28
2022-08-23T00:58:57.650Z,3.45
2022-08-23T01:01:24.962Z,3.28
2022-08-23T01:04:03.056Z,3.53
2022-08-23T01:06:41.803Z,3.58
2022-08-23T01:09:16.192Z,3.90
2022-08-23T01:12:05.879Z,4.10
2022-08-23T01:14:44.210Z,3.67
2022-08-23T01:17:20.226Z,4.30
2022-08-23T01:19:55.225Z,4.85
2022-08-23T01:22:41.365Z,4.70
2022-08-23T01:25:12.109Z,5.20
2022-08-23T01:27:39.721Z,5.40
2022-08-23T01:30:10.176Z,4.25
2022-08-23T01:32:45.370Z,3.83
2022-08-23T01:35:13.408Z,4.50
2022-08-23T01:37:41.761Z,4.70
2022-08-23T01:40:09.157Z,4.22
2022-08-23T01:42:36.022Z,4.28
2022-08-23T01:45:03.058Z,4.03
2022-08-23T01:47:29.892Z,4.72
2022-08-23T01:49:56.797Z,4.07
2022-08-23T01:52:23.590Z,3.95
2022-08-23T01:54:50.365Z,3.95
2022-08-23T01:57:17.530Z,4.07
2022-08-23T01:59:44.381Z,4.05
2022-08-23T02:02:11.419Z,3.45
2022-08-23T02:04:38.388Z,4.22
2022-08-23T02:07:05.296Z,3.90
2022-08-23T02:09:32.101Z,4.10
2022-08-23T02:11:59.379Z,4.30
2022-08-23T02:14:26.387Z,3.83
2022-08-23T02:17:04.045Z,4.18
2022-08-23T02:19:33.421Z,4.82
2022-08-23T02:22:00.458Z,4.82
2022-08-23T02:24:27.301Z,4.78
2022-08-23T02:26:57.350Z,4.90
2022-08-23T02:29:26.658Z,3.75
2022-08-23T02:31:54.395Z,3.47
2022-08-23T02:34:23.403Z,4.07
2022-08-23T02:36:53.049Z,3.83
2022-08-23T02:39:20.463Z,3.80
2022-08-23T02:41:47.795Z,4.20
2022-08-23T02:44:14.604Z,4.00
2022-08-23T02:46:42.426Z,3.83
2022-08-23T02:49:09.311Z,3.97
2022-08-23T02:51:36.142Z,3.90
2022-08-23T02:54:03.201Z,4.32
2022-08-23T02:56:30.515Z,4.35
2022-08-23T02:58:57.272Z,3.78
2022-08-23T03:01:26.986Z,4.38
2022-08-23T03:03:54.432Z,4.18
2022-08-23T03:06:24.684Z,4.13
2022-08-23T03:08:53.588Z,3.97
2022-08-23T03:11:21.986Z,3.90
2022-08-23T03:13:50.695Z,4.30
2022-08-23T03:16:19.063Z,3.75
2022-08-23T03:18:46.375Z,3.88
2022-08-23T03:21:13.820Z,3.65
2022-08-23T03:23:41.059Z,3.78
2022-08-23T03:26:10.257Z,4.53
2022-08-23T03:28:38.678Z,3.58
2022-08-23T03:31:06.649Z,3.92
2022-08-23T03:33:33.487Z,3.50
2022-08-23T03:36:01.834Z,3.88
2022-08-23T03:38:29.067Z,3.78
2022-08-23T03:40:55.970Z,3.60
2022-08-23T03:43:22.872Z,3.20
2022-08-23T03:45:49.760Z,2.53
2022-08-23T03:48:16.838Z,2.90
2022-08-23T03:50:44.574Z,2.53
2022-08-23T03:53:12.239Z,2.88
2022-08-23T03:55:42.579Z,2.13
2022-08-23T03:58:11.288Z,1.80
2022-08-23T04:00:38.611Z,2.50
2022-08-23T04:03:05.745Z,2.15
2022-08-23T04:05:32.632Z,1.88
2022-08-23T04:07:59.685Z,1.92
2022-08-23T04:10:26.732Z,1.77
2022-08-23T04:12:54.934Z,1.73
2022-08-23T04:15:22.740Z,1.85
2022-08-23T04:17:49.646Z,2.17
2022-08-23T04:20:16.908Z,1.85
2022-08-23T04:22:44.574Z,2.00
2022-08-23T04:25:33.111Z,1.65
2022-08-23T04:28:00.903Z,1.60
2022-08-23T04:30:28.451Z,1.70
2022-08-23T04:32:55.526Z,1.20
2022-08-23T04:35:22.532Z,1.33
2022-08-23T04:37:49.405Z,1.50
2022-08-23T04:40:35.112Z,1.38
2022-08-23T04:43:02.479Z,1.60
2022-08-23T04:45:32.547Z,1.25
2022-08-23T04:47:59.494Z,1.85
2022-08-23T04:50:26.487Z,1.30
2022-08-23T04:52:53.595Z,1.20
2022-08-23T04:55:20.479Z,1.58
2022-08-23T04:57:47.290Z,1.23
2022-08-23T05:00:16.615Z,1.10
2022-08-23T05:02:43.850Z,1.30
2022-08-23T05:05:11.719Z,1.20
2022-08-23T05:07:42.748Z,1.75
2022-08-23T05:10:16.267Z,1.35
2022-08-23T05:12:43.418Z,1.23
2022-08-23T05:15:10.982Z,1.35
2022-08-23T05:17:38.887Z,1.27
2022-08-23T05:20:10.289Z,1.25
2022-08-23T05:22:39.356Z,1.60
2022-08-23T05:25:06.821Z,1.38
2022-08-23T05:27:33.671Z,1.08
2022-08-23T05:30:00.650Z,1.40
2022-08-23T05:32:30.387Z,1.63
2022-08-23T05:35:00.627Z,1.52
2022-08-23T05:37:27.662Z,1.67
2022-08-23T05:39:54.492Z,1.35
2022-08-23T05:42:21.632Z,1.52
2022-08-23T05:44:48.422Z,1.20
2022-08-23T05:47:16.363Z,1.23
2022-08-23T05:49:44.454Z,1.30
2022-08-23T05:52:13.538Z,1.30
2022-08-23T05:54:40.506Z,1.33
2022-08-23T05:57:07.635Z,2.00
2022-08-23T05:59:34.943Z,2.10
2022-08-23T06:02:02.050Z,2.88
2022-08-23T06:04:28.924Z,2.08
2022-08-23T06:06:58.753Z,2.15
2022-08-23T06:09:26.419Z,2.15
2022-08-23T06:11:54.091Z,1.35
2022-08-23T06:14:21.289Z,1.42
2022-08-23T06:16:52.671Z,1.23
2022-08-23T06:19:22.938Z,1.10
2022-08-23T06:21:51.216Z,1.30
2022-08-23T06:24:18.554Z,1.40
2022-08-23T06:26:47.401Z,1.15
2022-08-23T06:29:18.151Z,0.95
2022-08-23T06:31:48.793Z,1.30
2022-08-23T06:34:19.155Z,1.20
2022-08-23T06:36:48.145Z,1.15
2022-08-23T06:39:16.951Z,1.10
2022-08-23T06:41:43.907Z,1.23
2022-08-23T06:44:10.768Z,1.20
2022-08-23T06:46:38.651Z,1.25
2022-08-23T06:49:07.354Z,1.50
2022-08-23T06:51:45.459Z,1.60
2022-08-23T06:54:15.279Z,2.05
2022-08-23T06:56:43.887Z,1.60
2022-08-23T06:59:12.145Z,1.50
2022-08-23T07:01:47.872Z,1.88
2022-08-23T07:04:17.696Z,1.83
2022-08-23T07:06:44.572Z,1.55
2022-08-23T07:09:11.656Z,1.33
2022-08-23T07:11:39.431Z,1.40
2022-08-23T07:14:11.663Z,1.70
2022-08-23T07:16:44.537Z,1.48
2022-08-23T07:19:12.286Z,1.50
2022-08-23T07:21:40.514Z,1.90
2022-08-23T07:24:08.504Z,1.50
2022-08-23T07:26:36.447Z,1.60
2022-08-23T07:29:06.164Z,1.58
2022-08-23T07:31:35.186Z,1.50
2022-08-23T07:34:04.884Z,1.52
2022-08-23T07:36:33.224Z,1.85
2022-08-23T07:39:00.738Z,1.70
2022-08-23T07:41:32.850Z,1.58
2022-08-23T07:44:02.753Z,1.55
2022-08-23T07:46:31.436Z,1.77
2022-08-23T07:49:00.027Z,1.33
2022-08-23T07:51:28.835Z,1.30
2022-08-23T07:53:56.008Z,1.60
2022-08-23T07:56:23.167Z,1.60
2022-08-23T07:58:50.409Z,1.52
2022-08-23T08:01:19.333Z,1.30
2022-08-23T08:03:48.176Z,1.50
2022-08-23T08:06:18.923Z,1.48
2022-08-23T08:08:46.134Z,1.63
2022-08-23T08:11:20.071Z,1.20
2022-08-23T08:13:48.537Z,1.00
2022-08-23T08:16:33.036Z,1.05
2022-08-23T08:19:01.535Z,0.90
2022-08-23T08:21:29.359Z,0.80
2022-08-23T08:24:22.297Z,0.90
2022-08-23T08:26:49.567Z,0.90
2022-08-23T08:29:16.414Z,0.80
2022-08-23T08:31:45.711Z,0.70
2022-08-23T08:34:13.430Z,0.95
2022-08-23T08:36:44.513Z,0.90
2022-08-23T08:39:15.286Z,0.65
2022-08-23T08:42:04.989Z,0.43
2022-08-23T08:44:49.741Z,0.38
2022-08-23T08:47:22.076Z,0.68
2022-08-23T08:49:51.907Z,0.50
2022-08-23T08:52:32.554Z,0.80
2022-08-23T08:55:11.873Z,0.60
2022-08-23T08:57:42.067Z,0.68
2022-08-23T09:00:17.041Z,0.70
2022-08-23T09:02:45.278Z,0.68
2022-08-23T09:05:16.826Z,0.65
2022-08-23T09:08:04.720Z,0.70
2022-08-23T09:10:52.349Z,1.25
2022-08-23T09:13:19.518Z,0.80
2022-08-23T09:16:15.940Z,0.90
2022-08-23T09:18:42.967Z,0.70
2022-08-23T09:21:10.125Z,1.65
2022-08-23T09:23:44.085Z,1.02
2022-08-23T09:26:26.728Z,0.90
2022-08-23T09:29:02.052Z,1.27
2022-08-23T09:32:06.604Z,1.70
2022-08-23T09:34:35.133Z,0.90
2022-08-23T09:37:13.382Z,2.95
2022-08-23T09:39:43.267Z,1.33
2022-08-23T09:46:01.953Z,0.60
2022-08-23T09:48:43.759Z,0.50
2022-08-23T09:53:53.570Z,0.77
2022-08-23T09:56:26.411Z,0.77
2022-08-23T09:58:54.483Z,1.00
2022-08-23T10:01:27.430Z,0.70
2022-08-23T10:04:12.637Z,0.77
2022-08-23T10:06:41.952Z,0.52
2022-08-23T10:09:21.353Z,0.85
2022-08-23T10:11:48.193Z,0.50
2022-08-23T10:14:19.295Z,0.50
2022-08-23T10:17:11.173Z,0.50
2022-08-23T10:19:49.870Z,0.40
2022-08-23T10:22:21.309Z,0.40
2022-08-23T10:24:51.351Z,0.30
2022-08-23T10:28:03.971Z,0.30
2022-08-23T10:30:46.593Z,0.38
2022-08-23T10:33:42.148Z,0.30
2022-08-23T10:36:28.241Z,0.40
2022-08-23T10:39:20.922Z,0.20
2022-08-23T10:42:32.589Z,0.50
2022-08-23T10:48:50.162Z,0.60
2022-08-23T10:51:31.248Z,0.40
2022-08-23T10:54:06.166Z,0.50
2022-08-23T10:56:34.207Z,0.50
2022-08-23T11:06:45.975Z,0.50
2022-08-23T11:09:21.832Z,0.40
2022-08-23T11:15:45.365Z,0.75
2022-08-23T11:26:40.137Z,0.77
2022-08-23T11:33:26.381Z,0.60
2022-08-23T11:35:55.183Z,0.60
2022-08-23T11:39:05.222Z,0.70
2022-08-23T11:41:56.318Z,0.57
2022-08-23T11:44:46.666Z,0.57
2022-08-23T11:47:14.471Z,0.70
2022-08-23T11:58:11.261Z,0.60
2022-08-23T12:00:57.432Z,0.60
2022-08-23T12:03:33.906Z,1.10
2022-08-23T12:06:10.255Z,0.90
2022-08-23T12:16:57.303Z,0.90
2022-08-23T12:19:40.476Z,0.90
2022-08-23T12:22:17.400Z,1.45
2022-08-23T12:24:52.439Z,1.52
2022-08-23T12:27:32.426Z,2.53
2022-08-23T12:30:06.996Z,2.58
2022-08-23T12:32:48.651Z,2.03
2022-08-23T12:35:29.032Z,1.30
2022-08-23T12:37:58.886Z,1.10
2022-08-23T12:40:36.329Z,0.90
2022-08-23T12:43:17.510Z,0.82
2022-08-23T12:45:55.295Z,0.90
2022-08-23T12:48:25.768Z,0.82
2022-08-23T12:51:07.359Z,0.63
2022-08-23T12:53:42.665Z,0.77
2022-08-23T12:56:32.850Z,0.90
2022-08-23T12:59:06.782Z,0.70
2022-08-23T13:01:41.870Z,1.00
2022-08-23T13:04:13.275Z,0.70
2022-08-23T13:06:51.487Z,0.75
2022-08-23T13:09:36.586Z,0.80
2022-08-23T13:12:04.740Z,0.70
2022-08-23T13:14:48.351Z,1.10
2022-08-23T13:17:27.029Z,1.00
2022-08-23T13:20:13.435Z,1.05
2022-08-23T13:22:56.846Z,0.80
2022-08-23T13:25:35.999Z,0.80
2022-08-23T13:28:27.599Z,1.30
2022-08-23T13:31:12.454Z,1.00
2022-08-23T13:33:41.016Z,1.00
2022-08-23T13:36:14.779Z,0.90
2022-08-23T13:38:44.046Z,1.02
2022-08-23T13:41:27.248Z,1.23
2022-08-23T13:43:54.990Z,1.90
2022-08-23T13:46:32.666Z,1.70
2022-08-23T13:48:59.487Z,1.23
2022-08-23T13:51:36.656Z,1.08
2022-08-23T13:54:10.561Z,0.93
2022-08-23T13:56:47.815Z,0.98
2022-08-23T13:59:31.707Z,1.08
2022-08-23T14:02:16.727Z,0.90
2022-08-23T14:04:44.146Z,1.20
2022-08-23T14:07:12.645Z,1.20
2022-08-23T14:09:39.769Z,1.20
2022-08-23T14:12:15.316Z,1.05
2022-08-23T14:14:43.221Z,1.38
2022-08-23T14:17:13.045Z,1.00
2022-08-23T14:22:33.879Z,1.95
2022-08-23T14:25:47.238Z,1.60
2022-08-23T14:28:14.124Z,1.20
2022-08-23T14:30:40.949Z,0.98
2022-08-23T14:33:08.006Z,1.05
2022-08-23T14:35:34.968Z,0.80
2022-08-23T14:38:04.316Z,0.90
2022-08-23T14:40:31.826Z,1.10
2022-08-23T14:42:58.819Z,1.30
2022-08-23T14:45:26.068Z,0.90
2022-08-23T14:47:53.023Z,1.10
2022-08-23T14:50:19.949Z,0.80
2022-08-23T14:52:47.692Z,0.80
2022-08-23T14:55:15.630Z,1.00
2022-08-23T14:57:42.962Z,0.98
2022-08-23T15:00:14.222Z,0.90
2022-08-23T15:02:50.057Z,0.90
2022-08-23T15:05:17.375Z,0.82
2022-08-23T15:07:44.419Z,0.70
2022-08-23T15:10:49.765Z,0.80
2022-08-23T15:13:14.076Z,0.50
2022-08-23T15:15:46.248Z,0.90
2022-08-23T15:18:16.744Z,1.10
2022-08-23T15:20:45.365Z,0.80
2022-08-23T15:23:12.306Z,0.90
2022-08-23T15:25:41.782Z,0.93
2022-08-23T15:28:13.214Z,0.70
2022-08-23T15:33:08.060Z,0.73
2022-08-23T15:35:41.323Z,0.60
2022-08-23T15:38:09.023Z,0.80
2022-08-23T15:40:36.074Z,0.57
2022-08-23T15:43:03.610Z,0.70
2022-08-23T15:45:32.407Z,0.50
2022-08-23T15:48:21.121Z,0.77
2022-08-23T15:50:48.064Z,0.50
2022-08-23T15:53:15.470Z,0.75
2022-08-23T15:55:43.884Z,0.60
2022-08-23T15:58:19.211Z,0.60
2022-08-23T16:00:47.719Z,0.70
2022-08-23T16:03:27.981Z,0.70
2022-08-23T16:05:55.747Z,0.60
2022-08-23T16:08:29.445Z,0.70
2022-08-23T16:10:57.130Z,0.77
2022-08-23T16:13:24.957Z,0.90
2022-08-23T16:15:52.852Z,0.70
2022-08-23T16:18:19.992Z,0.57
2022-08-23T16:20:46.856Z,0.70
2022-08-23T16:23:13.778Z,0.70
2022-08-23T16:25:40.959Z,0.93
2022-08-23T16:28:08.675Z,0.60
2022-08-23T16:30:35.893Z,0.93
2022-08-23T16:33:02.873Z,0.50
2022-08-23T16:35:29.789Z,0.70
2022-08-23T16:37:56.618Z,0.55
2022-08-23T16:40:23.654Z,0.70
2022-08-23T16:42:50.483Z,0.80
2022-08-23T16:45:17.795Z,0.70
2022-08-23T16:47:52.627Z,0.80
2022-08-23T16:50:19.513Z,0.60
2022-08-23T16:52:46.370Z,0.60
2022-08-23T16:55:13.400Z,0.60
2022-08-23T16:57:40.812Z,0.73
2022-08-23T17:00:13.696Z,1.13
2022-08-23T17:02:40.959Z,0.80
2022-08-23T17:05:11.835Z,0.70
2022-08-23T17:07:39.456Z,0.80
2022-08-23T17:10:08.554Z,0.60
2022-08-23T17:12:39.865Z,0.50
2022-08-23T17:15:08.325Z,0.60
2022-08-23T17:17:35.710Z,0.60
2022-08-23T17:20:03.193Z,0.88
2022-08-23T17:22:33.460Z,0.60
2022-08-23T17:25:00.354Z,0.75
2022-08-23T17:27:27.244Z,0.70
2022-08-23T17:29:54.615Z,0.85
2022-08-23T17:32:21.898Z,0.90
2022-08-23T17:34:48.705Z,0.70
2022-08-23T17:37:20.879Z,0.60
2022-08-23T17:39:48.977Z,0.60
2022-08-23T17:42:17.531Z,0.77
2022-08-23T17:44:45.274Z,0.70
2022-08-23T17:47:17.736Z,0.80
2022-08-23T17:49:46.675Z,0.60
2022-08-23T17:52:13.983Z,0.80
2022-08-23T17:54:41.581Z,0.73
2022-08-23T17:57:11.509Z,0.85
2022-08-23T17:59:38.320Z,0.63
2022-08-23T18:02:05.490Z,0.88
2022-08-23T18:04:32.559Z,0.80
2022-08-23T18:06:59.564Z,0.93
2022-08-23T18:09:26.422Z,0.80
2022-08-23T18:11:53.470Z,0.60
2022-08-23T18:14:20.418Z,0.73
2022-08-23T18:16:47.350Z,0.90
2022-08-23T18:19:14.236Z,0.73
2022-08-23T18:21:41.994Z,0.98
2022-08-23T18:24:09.628Z,0.80
2022-08-23T18:26:56.093Z,1.20
2022-08-23T18:29:23.456Z,1.00
2022-08-23T18:31:50.871Z,1.00
2022-08-23T18:34:18.795Z,0.90
2022-08-23T18:36:45.756Z,1.00
2022-08-23T18:39:13.889Z,0.90
2022-08-23T18:41:41.858Z,1.00
2022-08-23T18:44:09.066Z,1.05
2022-08-23T18:46:42.063Z,0.90
2022-08-23T18:49:10.919Z,1.08
2022-08-23T18:52:01.016Z,1.00
2022-08-23T18:54:31.842Z,0.90
2022-08-23T18:57:04.037Z,1.02
2022-08-23T18:59:31.022Z,1.08
2022-08-23T19:01:57.935Z,1.10
2022-08-23T19:04:24.876Z,0.93
2022-08-23T19:06:54.275Z,1.17
2022-08-23T19:09:21.567Z,1.05
2022-08-23T19:11:48.356Z,1.00
2022-08-23T19:14:15.264Z,1.00
2022-08-23T19:16:47.360Z,1.00
2022-08-23T19:19:15.141Z,1.00
2022-08-23T19:21:41.973Z,0.90
2022-08-23T19:24:08.769Z,0.85
2022-08-23T19:26:36.263Z,0.98
2022-08-23T19:29:07.650Z,1.00
2022-08-23T19:31:41.051Z,0.80
2022-08-23T19:34:09.367Z,1.00
2022-08-23T19:36:46.453Z,0.90
2022-08-23T19:39:16.403Z,0.95
2022-08-23T19:41:43.610Z,0.82
2022-08-23T19:44:10.881Z,1.10
2022-08-23T19:46:42.103Z,1.02
2022-08-23T19:49:10.851Z,1.08
2022-08-23T19:51:38.075Z,0.75
2022-08-23T19:54:11.417Z,0.85
2022-08-23T19:56:46.937Z,0.80
2022-08-23T19:59:19.583Z,0.95
2022-08-23T20:01:47.959Z,1.02
2022-08-23T20:04:15.012Z,1.10
2022-08-23T20:06:41.791Z,0.98
2022-08-23T20:09:08.825Z,1.00
2022-08-23T20:11:37.092Z,0.90
2022-08-23T20:14:05.423Z,0.90
2022-08-23T20:16:32.754Z,0.88
2022-08-23T20:19:00.456Z,0.80
2022-08-23T20:21:27.707Z,0.80
2022-08-23T20:24:00.999Z,0.80
2022-08-23T20:26:41.785Z,1.00
2022-08-23T20:29:11.507Z,0.90
2022-08-23T20:31:46.568Z,1.65
2022-08-23T20:34:13.635Z,0.77
2022-08-23T20:36:40.431Z,1.00
2022-08-23T20:39:07.876Z,0.80
2022-08-23T20:41:36.531Z,9.98
2022-08-23T20:44:04.368Z,9.13
2022-08-23T20:46:31.556Z,10.10
2022-08-23T20:48:58.648Z,8.52
2022-08-23T20:51:27.009Z,8.48
2022-08-23T20:53:54.834Z,7.82
2022-08-23T20:56:23.528Z,3.35
2022-08-23T20:58:51.063Z,3.50
2022-08-23T21:01:18.193Z,2.80
2022-08-23T21:03:45.512Z,3.00
2022-08-23T21:06:20.152Z,2.30
2022-08-23T21:08:53.444Z,1.52
2022-08-23T21:11:21.948Z,1.30
2022-08-23T21:13:48.896Z,2.05
2022-08-23T21:16:17.024Z,2.00
2022-08-23T21:18:44.287Z,1.60
2022-08-23T21:21:11.699Z,1.45
2022-08-23T21:23:38.998Z,1.58
2022-08-23T21:26:07.036Z,1.73
2022-08-23T21:28:35.983Z,1.63
2022-08-23T21:31:18.621Z,1.60
2022-08-23T21:33:45.992Z,1.40
2022-08-23T21:36:14.004Z,1.25
2022-08-23T21:38:40.995Z,1.73
2022-08-23T21:41:11.297Z,1.60
2022-08-23T21:43:39.116Z,1.50
2022-08-23T21:46:07.250Z,1.50
2022-08-23T21:48:34.695Z,1.50
2022-08-23T21:51:01.653Z,1.60
2022-08-23T21:53:28.632Z,1.40
2022-08-23T21:55:55.455Z,1.40
2022-08-23T21:58:22.300Z,1.80
2022-08-23T22:00:49.163Z,2.00
2022-08-23T22:03:16.029Z,1.45
2022-08-23T22:05:45.015Z,1.52
2022-08-23T22:08:14.502Z,1.60
2022-08-23T22:10:56.748Z,1.50
2022-08-23T22:13:26.967Z,1.60
2022-08-23T22:15:53.814Z,1.40
2022-08-23T22:18:20.814Z,1.58
2022-08-23T22:20:47.680Z,1.35
2022-08-23T22:23:14.557Z,1.60
2022-08-23T22:25:41.353Z,1.50
2022-08-23T22:28:08.332Z,1.30
2022-08-23T22:30:35.425Z,1.48
2022-08-23T22:33:03.114Z,1.35
2022-08-23T22:35:34.337Z,1.60
2022-08-23T22:38:13.689Z,1.55
2022-08-23T22:40:51.264Z,1.45
2022-08-23T22:43:19.967Z,1.60
2022-08-23T22:45:55.237Z,1.55
2022-08-23T22:48:23.000Z,1.55
2022-08-23T22:50:50.206Z,1.60
2022-08-23T22:53:18.032Z,1.40
2022-08-23T22:55:50.838Z,1.50
2022-08-23T22:58:18.278Z,1.60
2022-08-23T23:00:45.128Z,1.63
2022-08-23T23:03:11.963Z,1.85
2022-08-23T23:05:38.804Z,1.52
2022-08-23T23:08:24.559Z,1.35
2022-08-23T23:10:51.430Z,1.50
2022-08-23T23:13:18.229Z,1.50
2022-08-23T23:15:45.061Z,1.50
2022-08-23T23:18:11.867Z,1.55
2022-08-23T23:20:41.684Z,1.50
2022-08-23T23:23:15.364Z,1.63
2022-08-23T23:25:43.588Z,1.85
2022-08-23T23:28:10.385Z,1.45
2022-08-23T23:30:37.278Z,1.90
2022-08-23T23:33:04.911Z,1.55
2022-08-23T23:35:32.951Z,1.50
2022-08-23T23:37:59.820Z,1.48
2022-08-23T23:40:27.228Z,1.40
2022-08-23T23:42:55.997Z,1.48
2022-08-23T23:45:23.509Z,1.45
2022-08-23T23:47:51.018Z,1.40
2022-08-23T23:50:18.396Z,1.70
2022-08-23T23:52:45.950Z,1.42
2022-08-23T23:55:18.647Z,1.65
2022-08-23T23:57:45.825Z,1.55
